Terminal Aerodrome Forecast
Issued by NWS

Home | Current Version | Previous Version | Text Only | Print | Product List | Glossary On
Versions: 1 2 3 4 5 6 7 8 9 10 11 12 13
353
FTUS41 KLWX 061735
TAFMTN
TAF
KMTN 061735Z 0618/0718 08007KT 3SM RA SCT025 OVC050
     FM062000 07008KT 3SM RA OVC008
     FM062200 06008KT 3SM -RA OVC003
     FM070600 02006KT P6SM OVC008
     FM071200 33005KT P6SM BKN050
     FM071600 31009KT P6SM BKN050
     FM071700 31009KT P6SM SCT050=

USA.gov is the U.S. government's official web portal to all federal, state and local government web resources and services.